sensor_id;sensor_type;location;lat;lon;timestamp;temperature;humidity
15926;DHT22;8062;53.882;10.642;2024-01-15T00:00:08;1.00;99.90
15926;DHT22;8062;53.882;10.642;2024-01-15T00:01:31;1.00;99.90
15926;DHT22;8062;53.882;10.642;2024-01-15T00:02:50;1.00;99.90
15926;DHT22;8062;53.882;10.642;2024-01-15T00:04:09;0.90;99.90
15926;DHT22;8062;53.882;10.642;2024-01-15T00:05:29;0.90;99.90
15926;DHT22;8062;53.882;10.642;2024-01-15T00:06:49;0.90;99.90
15926;DHT22;8062;53.882;10.642;2024-01-15T00:08:09;0.90;99.90
15926;DHT22;8062;53.882;10.642;2024-01-15T00:09:28;1.00;99.90
15926;DHT22;8062;53.882;10.642;2024-01-15T00:10:48;1.00;99.90
15926;DHT22;8062;53.882;10.642;2024-01-15T00:12:07;1.00;99.90
15926;DHT22;8062;53.882;10.642;2024-01-15T00:13:27;1.00;99.90
15926;DHT22;8062;53.882;10.642;2024-01-15T00:14:47;1.00;99.90
15926;DHT22;8062;53.882;10.642;2024-01-15T00:16:06;1.00;99.90
15926;DHT22;8062;53.882;10.642;2024-01-15T00:17:26;1.10;99.90
15926;DHT22;8062;53.882;10.642;2024-01-15T00:18:45;1.10;99.90
15926;DHT22;8062;53.882;10.642;2024-01-15T00:20:05;1.10;99.90
15926;DHT22;8062;53.882;10.642;2024-01-15T00:21:26;1.10;99.90
15926;DHT22;8062;53.882;10.642;2024-01-15T00:22:46;1.10;99.90
15926;DHT22;8062;53.882;10.642;2024-01-15T00:24:05;1.20;99.90
15926;DHT22;8062;53.882;10.642;2024-01-15T00:25:25;1.20;99.90
15926;DHT22;8062;53.882;10.642;2024-01-15T00:26:44;1.20;99.90
15926;DHT22;8062;53.882;10.642;2024-01-15T00:28:04;1.20;99.90
15926;DHT22;8062;53.882;10.642;2024-01-15T00:29:24;1.20;99.90
15926;DHT22;8062;53.882;10.642;2024-01-15T00:30:43;1.30;99.90
15926;DHT22;8062;53.882;10.642;2024-01-15T00:32:03;1.30;99.90
15926;DHT22;8062;53.882;10.642;2024-01-15T00:33:23;1.30;99.90
15926;DHT22;8062;53.882;10.642;2024-01-15T00:34:42;1.30;99.90
15926;DHT22;8062;53.882;10.642;2024-01-15T00:36:03;1.30;99.90
15926;DHT22;8062;53.882;10.642;2024-01-15T00:37:22;1.30;99.90
15926;DHT22;8062;53.882;10.642;2024-01-15T00:38:43;1.40;99.90
15926;DHT22;8062;53.882;10.642;2024-01-15T00:40:03;1.40;99.90
15926;DHT22;8062;53.882;10.642;2024-01-15T00:41:23;1.40;99.90
15926;DHT22;8062;53.882;10.642;2024-01-15T00:42:42;1.40;99.90
15926;DHT22;8062;53.882;10.642;2024-01-15T00:44:02;1.40;99.90
15926;DHT22;8062;53.882;10.642;2024-01-15T00:45:22;1.40;99.90
15926;DHT22;8062;53.882;10.642;2024-01-15T00:46:45;1.40;99.90
15926;DHT22;8062;53.882;10.642;2024-01-15T00:48:05;1.50;99.90
15926;DHT22;8062;53.882;10.642;2024-01-15T00:49:24;1.50;99.90
15926;DHT22;8062;53.882;10.642;2024-01-15T00:50:44;1.50;99.90
15926;DHT22;8062;53.882;10.642;2024-01-15T00:52:04;1.50;99.90
15926;DHT22;8062;53.882;10.642;2024-01-15T00:53:23;1.50;99.90
15926;DHT22;8062;53.882;10.642;2024-01-15T00:54:42;1.50;99.90
15926;DHT22;8062;53.882;10.642;2024-01-15T00:56:02;1.50;99.90
15926;DHT22;8062;53.882;10.642;2024-01-15T00:57:22;1.50;99.90
15926;DHT22;8062;53.882;10.642;2024-01-15T00:58:42;1.50;99.90
15926;DHT22;8062;53.882;10.642;2024-01-15T01:00:01;1.50;99.90
15926;DHT22;8062;53.882;10.642;2024-01-15T01:01:21;1.60;99.90
15926;DHT22;8062;53.882;10.642;2024-01-15T01:02:41;1.50;99.90
15926;DHT22;8062;53.882;10.642;2024-01-15T01:04:01;1.50;99.90
15926;DHT22;8062;53.882;10.642;2024-01-15T01:05:20;1.40;99.90
15926;DHT22;8062;53.882;10.642;2024-01-15T01:06:40;1.40;99.90
15926;DHT22;8062;53.882;10.642;2024-01-15T01:07:59;1.40;99.90
15926;DHT22;8062;53.882;10.642;2024-01-15T01:09:18;1.40;99.90
15926;DHT22;8062;53.882;10.642;2024-01-15T01:10:38;1.40;99.90
15926;DHT22;8062;53.882;10.642;2024-01-15T01:11:57;1.30;99.90
15926;DHT22;8062;53.882;10.642;2024-01-15T01:13:17;1.30;99.90
15926;DHT22;8062;53.882;10.642;2024-01-15T01:14:36;1.30;99.90
15926;DHT22;8062;53.882;10.642;2024-01-15T01:15:56;1.30;99.90
15926;DHT22;8062;53.882;10.642;2024-01-15T01:17:16;1.20;99.90
15926;DHT22;8062;53.882;10.642;2024-01-15T01:18:35;1.20;99.90
15926;DHT22;8062;53.882;10.642;2024-01-15T01:19:55;1.10;99.90
15926;DHT22;8062;53.882;10.642;2024-01-15T01:21:15;1.10;99.90
15926;DHT22;8062;53.882;10.642;2024-01-15T01:22:35;1.00;99.90
15926;DHT22;8062;53.882;10.642;2024-01-15T01:23:54;1.00;99.90
15926;DHT22;8062;53.882;10.642;2024-01-15T01:25:14;1.00;99.90
15926;DHT22;8062;53.882;10.642;2024-01-15T01:26:34;1.10;99.90
15926;DHT22;8062;53.882;10.642;2024-01-15T01:27:53;1.10;99.90
15926;DHT22;8062;53.882;10.642;2024-01-15T01:29:13;1.10;99.90
15926;DHT22;8062;53.882;10.642;2024-01-15T01:30:32;1.10;99.90
15926;DHT22;8062;53.882;10.642;2024-01-15T01:31:52;1.10;99.90
15926;DHT22;8062;53.882;10.642;2024-01-15T01:33:11;1.10;99.90
15926;DHT22;8062;53.882;10.642;2024-01-15T01:34:33;1.00;99.90
15926;DHT22;8062;53.882;10.642;2024-01-15T01:35:58;1.10;99.90
15926;DHT22;8062;53.882;10.642;2024-01-15T01:37:18;1.00;99.90
15926;DHT22;8062;53.882;10.642;2024-01-15T01:38:37;1.10;99.90
15926;DHT22;8062;53.882;10.642;2024-01-15T01:39:57;1.10;99.90
15926;DHT22;8062;53.882;10.642;2024-01-15T01:41:17;1.10;99.90
15926;DHT22;8062;53.882;10.642;2024-01-15T01:42:36;1.10;99.90
15926;DHT22;8062;53.882;10.642;2024-01-15T01:43:56;1.10;99.90
15926;DHT22;8062;53.882;10.642;2024-01-15T01:45:16;1.20;99.90
15926;DHT22;8062;53.882;10.642;2024-01-15T01:46:36;1.20;99.90
15926;DHT22;8062;53.882;10.642;2024-01-15T01:48:00;1.20;99.90
15926;DHT22;8062;53.882;10.642;2024-01-15T01:49:22;1.20;99.90
15926;DHT22;8062;53.882;10.642;2024-01-15T01:50:42;1.20;99.90
15926;DHT22;8062;53.882;10.642;2024-01-15T01:52:04;1.20;99.90
15926;DHT22;8062;53.882;10.642;2024-01-15T01:53:25;1.20;99.90
15926;DHT22;8062;53.882;10.642;2024-01-15T01:54:45;1.20;99.90
15926;DHT22;8062;53.882;10.642;2024-01-15T01:56:05;1.20;99.90
15926;DHT22;8062;53.882;10.642;2024-01-15T01:57:25;1.20;99.90
15926;DHT22;8062;53.882;10.642;2024-01-15T01:58:46;1.20;99.90
15926;DHT22;8062;53.882;10.642;2024-01-15T02:00:07;1.30;99.90
15926;DHT22;8062;53.882;10.642;2024-01-15T02:01:33;1.30;99.90
15926;DHT22;8062;53.882;10.642;2024-01-15T02:02:53;1.30;99.90
15926;DHT22;8062;53.882;10.642;2024-01-15T02:04:12;1.30;99.90
15926;DHT22;8062;53.882;10.642;2024-01-15T02:05:33;1.30;99.90
15926;DHT22;8062;53.882;10.642;2024-01-15T02:06:53;1.30;99.90
15926;DHT22;8062;53.882;10.642;2024-01-15T02:08:12;1.30;99.90
15926;DHT22;8062;53.882;10.642;2024-01-15T02:09:32;1.30;99.90
15926;DHT22;8062;53.882;10.642;2024-01-15T02:10:52;1.30;99.90
15926;DHT22;8062;53.882;10.642;2024-01-15T02:12:11;1.40;99.90
15926;DHT22;8062;53.882;10.642;2024-01-15T02:13:31;1.40;99.90
15926;DHT22;8062;53.882;10.642;2024-01-15T02:14:50;1.40;99.90
15926;DHT22;8062;53.882;10.642;2024-01-15T02:16:10;1.40;99.90
15926;DHT22;8062;53.882;10.642;2024-01-15T02:17:29;1.40;99.90
15926;DHT22;8062;53.882;10.642;2024-01-15T02:18:48;1.40;99.90
15926;DHT22;8062;53.882;10.642;2024-01-15T02:20:08;1.50;99.90
15926;DHT22;8062;53.882;10.642;2024-01-15T02:21:28;1.50;99.90
15926;DHT22;8062;53.882;10.642;2024-01-15T02:22:48;1.50;99.90
15926;DHT22;8062;53.882;10.642;2024-01-15T02:24:07;1.50;99.90
15926;DHT22;8062;53.882;10.642;2024-01-15T02:25:27;1.50;99.90
15926;DHT22;8062;53.882;10.642;2024-01-15T02:26:46;1.50;99.90
15926;DHT22;8062;53.882;10.642;2024-01-15T02:28:08;1.50;99.90
15926;DHT22;8062;53.882;10.642;2024-01-15T02:29:28;1.50;99.90
15926;DHT22;8062;53.882;10.642;2024-01-15T02:30:48;1.60;99.90
15926;DHT22;8062;53.882;10.642;2024-01-15T02:32:08;1.60;99.90
15926;DHT22;8062;53.882;10.642;2024-01-15T02:33:28;1.60;99.90
15926;DHT22;8062;53.882;10.642;2024-01-15T02:34:48;1.60;99.90
15926;DHT22;8062;53.882;10.642;2024-01-15T02:36:07;1.60;99.90
15926;DHT22;8062;53.882;10.642;2024-01-15T02:37:27;1.60;99.90
15926;DHT22;8062;53.882;10.642;2024-01-15T02:38:47;1.60;99.90
15926;DHT22;8062;53.882;10.642;2024-01-15T02:40:07;1.60;99.90
15926;DHT22;8062;53.882;10.642;2024-01-15T02:41:26;1.60;99.90
15926;DHT22;8062;53.882;10.642;2024-01-15T02:42:46;1.60;99.90
15926;DHT22;8062;53.882;10.642;2024-01-15T02:44:05;1.60;99.90
15926;DHT22;8062;53.882;10.642;2024-01-15T02:45:24;1.60;99.90
15926;DHT22;8062;53.882;10.642;2024-01-15T02:46:44;1.60;99.90
15926;DHT22;8062;53.882;10.642;2024-01-15T02:48:04;1.60;99.90
15926;DHT22;8062;53.882;10.642;2024-01-15T02:49:23;1.50;99.90
15926;DHT22;8062;53.882;10.642;2024-01-15T02:50:43;1.50;99.90
15926;DHT22;8062;53.882;10.642;2024-01-15T02:52:02;1.50;99.90
15926;DHT22;8062;53.882;10.642;2024-01-15T02:53:22;1.50;99.90
15926;DHT22;8062;53.882;10.642;2024-01-15T02:54:41;1.50;99.90
15926;DHT22;8062;53.882;10.642;2024-01-15T02:56:01;1.50;99.90
15926;DHT22;8062;53.882;10.642;2024-01-15T02:57:20;1.50;99.90
15926;DHT22;8062;53.882;10.642;2024-01-15T02:58:40;1.50;99.90
15926;DHT22;8062;53.882;10.642;2024-01-15T02:59:59;1.50;99.90
15926;DHT22;8062;53.882;10.642;2024-01-15T03:01:19;1.50;99.90
15926;DHT22;8062;53.882;10.642;2024-01-15T03:02:40;1.50;99.90
15926;DHT22;8062;53.882;10.642;2024-01-15T03:04:00;1.50;99.90
15926;DHT22;8062;53.882;10.642;2024-01-15T03:05:19;1.60;99.90
15926;DHT22;8062;53.882;10.642;2024-01-15T03:06:39;1.60;99.90
15926;DHT22;8062;53.882;10.642;2024-01-15T03:07:58;1.60;99.90
15926;DHT22;8062;53.882;10.642;2024-01-15T03:09:18;1.60;99.90
15926;DHT22;8062;53.882;10.642;2024-01-15T03:10:37;1.60;99.90
15926;DHT22;8062;53.882;10.642;2024-01-15T03:11:57;1.60;99.90
15926;DHT22;8062;53.882;10.642;2024-01-15T03:13:16;1.60;99.90
15926;DHT22;8062;53.882;10.642;2024-01-15T03:14:38;1.60;99.90
15926;DHT22;8062;53.882;10.642;2024-01-15T03:15:57;1.70;99.90
15926;DHT22;8062;53.882;10.642;2024-01-15T03:17:17;1.60;99.90
15926;DHT22;8062;53.882;10.642;2024-01-15T03:18:36;1.70;99.90
15926;DHT22;8062;53.882;10.642;2024-01-15T03:19:56;1.70;99.90
15926;DHT22;8062;53.882;10.642;2024-01-15T03:21:15;1.70;99.90
15926;DHT22;8062;53.882;10.642;2024-01-15T03:22:35;1.70;99.90
15926;DHT22;8062;53.882;10.642;2024-01-15T03:23:54;1.70;99.90
15926;DHT22;8062;53.882;10.642;2024-01-15T03:25:14;1.70;99.90
15926;DHT22;8062;53.882;10.642;2024-01-15T03:26:33;1.70;99.90
15926;DHT22;8062;53.882;10.642;2024-01-15T03:27:53;1.70;99.90
15926;DHT22;8062;53.882;10.642;2024-01-15T03:29:13;1.70;99.90
15926;DHT22;8062;53.882;10.642;2024-01-15T03:30:32;1.60;99.90
15926;DHT22;8062;53.882;10.642;2024-01-15T03:31:52;1.70;99.90
15926;DHT22;8062;53.882;10.642;2024-01-15T03:33:11;1.70;99.90
15926;DHT22;8062;53.882;10.642;2024-01-15T03:34:30;1.60;99.90
15926;DHT22;8062;53.882;10.642;2024-01-15T03:35:50;1.60;99.90
15926;DHT22;8062;53.882;10.642;2024-01-15T03:37:10;1.60;99.90
15926;DHT22;8062;53.882;10.642;2024-01-15T03:38:29;1.60;99.90
15926;DHT22;8062;53.882;10.642;2024-01-15T03:39:49;1.60;99.90
15926;DHT22;8062;53.882;10.642;2024-01-15T03:41:08;1.60;99.90
15926;DHT22;8062;53.882;10.642;2024-01-15T03:42:28;1.50;99.90
15926;DHT22;8062;53.882;10.642;2024-01-15T03:43:47;1.60;99.90
15926;DHT22;8062;53.882;10.642;2024-01-15T03:45:07;1.60;99.90
15926;DHT22;8062;53.882;10.642;2024-01-15T03:46:26;1.60;99.90
15926;DHT22;8062;53.882;10.642;2024-01-15T03:47:46;1.60;99.90
15926;DHT22;8062;53.882;10.642;2024-01-15T03:49:05;1.60;99.90
15926;DHT22;8062;53.882;10.642;2024-01-15T03:50:25;1.60;99.90
15926;DHT22;8062;53.882;10.642;2024-01-15T03:51:45;1.60;99.90
15926;DHT22;8062;53.882;10.642;2024-01-15T03:53:04;1.60;99.90
15926;DHT22;8062;53.882;10.642;2024-01-15T03:54:24;1.50;99.90
15926;DHT22;8062;53.882;10.642;2024-01-15T03:55:43;1.50;99.90
15926;DHT22;8062;53.882;10.642;2024-01-15T03:57:03;1.50;99.90
15926;DHT22;8062;53.882;10.642;2024-01-15T03:58:22;1.40;99.90
15926;DHT22;8062;53.882;10.642;2024-01-15T03:59:42;1.40;99.90
15926;DHT22;8062;53.882;10.642;2024-01-15T04:01:02;1.50;99.90
15926;DHT22;8062;53.882;10.642;2024-01-15T04:02:21;1.50;99.90
15926;DHT22;8062;53.882;10.642;2024-01-15T04:03:41;1.50;99.90
15926;DHT22;8062;53.882;10.642;2024-01-15T04:05:00;1.50;99.90
15926;DHT22;8062;53.882;10.642;2024-01-15T04:06:20;1.50;99.90
15926;DHT22;8062;53.882;10.642;2024-01-15T04:07:39;1.50;99.90
15926;DHT22;8062;53.882;10.642;2024-01-15T04:08:58;1.50;99.90
15926;DHT22;8062;53.882;10.642;2024-01-15T04:10:18;1.50;99.90
15926;DHT22;8062;53.882;10.642;2024-01-15T04:11:37;1.50;99.90
15926;DHT22;8062;53.882;10.642;2024-01-15T04:12:57;1.50;99.90
15926;DHT22;8062;53.882;10.642;2024-01-15T04:14:19;1.50;99.90
15926;DHT22;8062;53.882;10.642;2024-01-15T04:15:38;1.50;99.90
15926;DHT22;8062;53.882;10.642;2024-01-15T04:16:58;1.40;99.90
15926;DHT22;8062;53.882;10.642;2024-01-15T04:18:17;1.40;99.90
15926;DHT22;8062;53.882;10.642;2024-01-15T04:19:37;1.40;99.90
15926;DHT22;8062;53.882;10.642;2024-01-15T04:20:56;1.40;99.90
15926;DHT22;8062;53.882;10.642;2024-01-15T04:22:15;1.40;99.90
15926;DHT22;8062;53.882;10.642;2024-01-15T04:23:35;1.40;99.90
15926;DHT22;8062;53.882;10.642;2024-01-15T04:24:55;1.40;99.90
15926;DHT22;8062;53.882;10.642;2024-01-15T04:26:14;1.40;99.90
15926;DHT22;8062;53.882;10.642;2024-01-15T04:27:33;1.40;99.90
15926;DHT22;8062;53.882;10.642;2024-01-15T04:28:53;1.40;99.90
15926;DHT22;8062;53.882;10.642;2024-01-15T04:30:12;1.40;99.90
15926;DHT22;8062;53.882;10.642;2024-01-15T04:31:32;1.50;99.90
15926;DHT22;8062;53.882;10.642;2024-01-15T04:32:52;1.40;99.90
15926;DHT22;8062;53.882;10.642;2024-01-15T04:34:11;1.40;99.90
15926;DHT22;8062;53.882;10.642;2024-01-15T04:35:31;1.40;99.90
15926;DHT22;8062;53.882;10.642;2024-01-15T04:36:51;1.40;99.90
15926;DHT22;8062;53.882;10.642;2024-01-15T04:38:10;1.40;99.90
15926;DHT22;8062;53.882;10.642;2024-01-15T04:39:30;1.40;99.90
15926;DHT22;8062;53.882;10.642;2024-01-15T04:40:49;1.40;99.90
15926;DHT22;8062;53.882;10.642;2024-01-15T04:42:08;1.40;99.90
15926;DHT22;8062;53.882;10.642;2024-01-15T04:43:28;1.40;99.90
15926;DHT22;8062;53.882;10.642;2024-01-15T04:44:47;1.40;99.90
15926;DHT22;8062;53.882;10.642;2024-01-15T04:46:07;1.40;99.90
15926;DHT22;8062;53.882;10.642;2024-01-15T04:47:27;1.40;99.90
15926;DHT22;8062;53.882;10.642;2024-01-15T04:48:46;1.40;99.90
15926;DHT22;8062;53.882;10.642;2024-01-15T04:50:06;1.40;99.90
15926;DHT22;8062;53.882;10.642;2024-01-15T04:51:26;1.40;99.90
15926;DHT22;8062;53.882;10.642;2024-01-15T04:52:45;1.40;99.90
15926;DHT22;8062;53.882;10.642;2024-01-15T04:54:05;1.40;99.90
15926;DHT22;8062;53.882;10.642;2024-01-15T04:55:24;1.40;99.90
15926;DHT22;8062;53.882;10.642;2024-01-15T04:56:44;1.40;99.90
15926;DHT22;8062;53.882;10.642;2024-01-15T04:58:04;1.40;99.90
15926;DHT22;8062;53.882;10.642;2024-01-15T04:59:23;1.40;99.90
15926;DHT22;8062;53.882;10.642;2024-01-15T05:00:43;1.40;99.90
15926;DHT22;8062;53.882;10.642;2024-01-15T05:02:02;1.40;99.90
15926;DHT22;8062;53.882;10.642;2024-01-15T05:03:22;1.40;99.90
15926;DHT22;8062;53.882;10.642;2024-01-15T05:04:41;1.50;99.90
15926;DHT22;8062;53.882;10.642;2024-01-15T05:06:01;1.50;99.90
15926;DHT22;8062;53.882;10.642;2024-01-15T05:07:20;1.50;99.90
15926;DHT22;8062;53.882;10.642;2024-01-15T05:08:40;1.50;99.90
15926;DHT22;8062;53.882;10.642;2024-01-15T05:09:59;1.50;99.90
15926;DHT22;8062;53.882;10.642;2024-01-15T05:11:19;1.50;99.90
15926;DHT22;8062;53.882;10.642;2024-01-15T05:12:38;1.50;99.90
15926;DHT22;8062;53.882;10.642;2024-01-15T05:13:57;1.40;99.90
15926;DHT22;8062;53.882;10.642;2024-01-15T05:15:17;1.40;99.90
15926;DHT22;8062;53.882;10.642;2024-01-15T05:16:46;1.40;99.90
15926;DHT22;8062;53.882;10.642;2024-01-15T05:18:05;1.40;99.90
15926;DHT22;8062;53.882;10.642;2024-01-15T05:19:25;1.40;99.90
15926;DHT22;8062;53.882;10.642;2024-01-15T05:20:45;1.40;99.90
15926;DHT22;8062;53.882;10.642;2024-01-15T05:22:04;1.40;99.90
15926;DHT22;8062;53.882;10.642;2024-01-15T05:23:24;1.40;99.90
15926;DHT22;8062;53.882;10.642;2024-01-15T05:24:43;1.40;99.90
15926;DHT22;8062;53.882;10.642;2024-01-15T05:26:03;1.40;99.90
15926;DHT22;8062;53.882;10.642;2024-01-15T05:27:22;1.40;99.90
15926;DHT22;8062;53.882;10.642;2024-01-15T05:28:42;1.40;99.90
15926;DHT22;8062;53.882;10.642;2024-01-15T05:30:05;1.40;99.90
15926;DHT22;8062;53.882;10.642;2024-01-15T05:31:24;1.40;99.90
15926;DHT22;8062;53.882;10.642;2024-01-15T05:32:43;1.40;99.90
15926;DHT22;8062;53.882;10.642;2024-01-15T05:34:03;1.40;99.90
15926;DHT22;8062;53.882;10.642;2024-01-15T05:35:23;1.40;99.90
15926;DHT22;8062;53.882;10.642;2024-01-15T05:36:42;1.40;99.90
15926;DHT22;8062;53.882;10.642;2024-01-15T05:38:01;1.50;99.90
15926;DHT22;8062;53.882;10.642;2024-01-15T05:39:22;1.50;99.90
15926;DHT22;8062;53.882;10.642;2024-01-15T05:40:41;1.50;99.90
15926;DHT22;8062;53.882;10.642;2024-01-15T05:42:01;1.50;99.90
15926;DHT22;8062;53.882;10.642;2024-01-15T05:43:20;1.60;99.90
15926;DHT22;8062;53.882;10.642;2024-01-15T05:44:40;1.60;99.90
15926;DHT22;8062;53.882;10.642;2024-01-15T05:45:59;1.50;99.90
15926;DHT22;8062;53.882;10.642;2024-01-15T05:47:18;1.60;99.90
15926;DHT22;8062;53.882;10.642;2024-01-15T05:48:38;1.70;99.90
15926;DHT22;8062;53.882;10.642;2024-01-15T05:49:58;1.70;99.90
15926;DHT22;8062;53.882;10.642;2024-01-15T05:51:17;1.70;99.90
15926;DHT22;8062;53.882;10.642;2024-01-15T05:52:36;1.60;99.90
15926;DHT22;8062;53.882;10.642;2024-01-15T05:53:56;1.60;99.90
15926;DHT22;8062;53.882;10.642;2024-01-15T05:55:15;1.60;99.90
15926;DHT22;8062;53.882;10.642;2024-01-15T05:56:35;1.60;99.90
15926;DHT22;8062;53.882;10.642;2024-01-15T05:57:55;1.50;99.90
15926;DHT22;8062;53.882;10.642;2024-01-15T05:59:14;1.60;99.90
15926;DHT22;8062;53.882;10.642;2024-01-15T06:00:34;1.60;99.90
15926;DHT22;8062;53.882;10.642;2024-01-15T06:01:54;1.60;99.90
15926;DHT22;8062;53.882;10.642;2024-01-15T06:03:13;1.60;99.90
15926;DHT22;8062;53.882;10.642;2024-01-15T06:04:33;1.60;99.90
15926;DHT22;8062;53.882;10.642;2024-01-15T06:05:52;1.50;99.90
15926;DHT22;8062;53.882;10.642;2024-01-15T06:07:12;1.60;99.90
15926;DHT22;8062;53.882;10.642;2024-01-15T06:08:31;1.50;99.90
15926;DHT22;8062;53.882;10.642;2024-01-15T06:09:51;1.60;99.90
15926;DHT22;8062;53.882;10.642;2024-01-15T06:11:10;1.50;99.90
15926;DHT22;8062;53.882;10.642;2024-01-15T06:12:30;1.60;99.90
15926;DHT22;8062;53.882;10.642;2024-01-15T06:13:49;1.60;99.90
15926;DHT22;8062;53.882;10.642;2024-01-15T06:15:09;1.60;99.90
15926;DHT22;8062;53.882;10.642;2024-01-15T06:16:29;1.60;99.90
15926;DHT22;8062;53.882;10.642;2024-01-15T06:17:48;1.50;99.90
15926;DHT22;8062;53.882;10.642;2024-01-15T06:19:08;1.50;99.90
15926;DHT22;8062;53.882;10.642;2024-01-15T06:20:27;1.50;99.90
15926;DHT22;8062;53.882;10.642;2024-01-15T06:21:47;1.60;99.90
15926;DHT22;8062;53.882;10.642;2024-01-15T06:23:06;1.50;99.90
15926;DHT22;8062;53.882;10.642;2024-01-15T06:24:26;1.60;99.90
15926;DHT22;8062;53.882;10.642;2024-01-15T06:25:45;1.60;99.90
15926;DHT22;8062;53.882;10.642;2024-01-15T06:27:04;1.70;99.90
15926;DHT22;8062;53.882;10.642;2024-01-15T06:28:24;1.60;99.90
15926;DHT22;8062;53.882;10.642;2024-01-15T06:29:46;1.70;99.90
15926;DHT22;8062;53.882;10.642;2024-01-15T06:31:08;1.70;99.90
15926;DHT22;8062;53.882;10.642;2024-01-15T06:32:27;1.70;99.90
15926;DHT22;8062;53.882;10.642;2024-01-15T06:33:47;1.70;99.90
15926;DHT22;8062;53.882;10.642;2024-01-15T06:35:07;1.70;99.90
15926;DHT22;8062;53.882;10.642;2024-01-15T06:36:27;1.70;99.90
15926;DHT22;8062;53.882;10.642;2024-01-15T06:37:46;1.70;99.90
15926;DHT22;8062;53.882;10.642;2024-01-15T06:39:06;1.70;99.90
15926;DHT22;8062;53.882;10.642;2024-01-15T06:40:25;1.70;99.90
15926;DHT22;8062;53.882;10.642;2024-01-15T06:41:45;1.70;99.90
15926;DHT22;8062;53.882;10.642;2024-01-15T06:43:04;1.70;99.90
15926;DHT22;8062;53.882;10.642;2024-01-15T06:44:24;1.70;99.90
15926;DHT22;8062;53.882;10.642;2024-01-15T06:45:44;1.70;99.90
15926;DHT22;8062;53.882;10.642;2024-01-15T06:47:05;1.60;99.90
15926;DHT22;8062;53.882;10.642;2024-01-15T06:48:24;1.60;99.90
15926;DHT22;8062;53.882;10.642;2024-01-15T06:49:44;1.70;99.90
15926;DHT22;8062;53.882;10.642;2024-01-15T06:51:04;1.70;99.90
15926;DHT22;8062;53.882;10.642;2024-01-15T06:52:23;1.70;99.90
15926;DHT22;8062;53.882;10.642;2024-01-15T06:53:43;1.60;99.90
15926;DHT22;8062;53.882;10.642;2024-01-15T06:55:02;1.60;99.90
15926;DHT22;8062;53.882;10.642;2024-01-15T06:56:22;1.70;99.90
15926;DHT22;8062;53.882;10.642;2024-01-15T06:57:42;1.70;99.90
15926;DHT22;8062;53.882;10.642;2024-01-15T06:59:02;1.70;99.90
15926;DHT22;8062;53.882;10.642;2024-01-15T07:00:22;1.80;99.90
15926;DHT22;8062;53.882;10.642;2024-01-15T07:01:42;1.70;99.90
15926;DHT22;8062;53.882;10.642;2024-01-15T07:03:01;1.70;99.90
15926;DHT22;8062;53.882;10.642;2024-01-15T07:04:21;1.70;99.90
15926;DHT22;8062;53.882;10.642;2024-01-15T07:05:40;1.70;99.90
15926;DHT22;8062;53.882;10.642;2024-01-15T07:07:00;1.70;99.90
15926;DHT22;8062;53.882;10.642;2024-01-15T07:08:19;1.60;99.90
15926;DHT22;8062;53.882;10.642;2024-01-15T07:09:40;1.60;99.90
15926;DHT22;8062;53.882;10.642;2024-01-15T07:11:03;1.60;99.90
15926;DHT22;8062;53.882;10.642;2024-01-15T07:12:22;1.60;99.90
15926;DHT22;8062;53.882;10.642;2024-01-15T07:13:42;1.60;99.90
15926;DHT22;8062;53.882;10.642;2024-01-15T07:15:02;1.60;99.90
15926;DHT22;8062;53.882;10.642;2024-01-15T07:16:21;1.60;99.90
15926;DHT22;8062;53.882;10.642;2024-01-15T07:17:41;1.60;99.90
15926;DHT22;8062;53.882;10.642;2024-01-15T07:19:01;1.60;99.90
15926;DHT22;8062;53.882;10.642;2024-01-15T07:20:21;1.60;99.90
15926;DHT22;8062;53.882;10.642;2024-01-15T07:21:41;1.70;99.90
15926;DHT22;8062;53.882;10.642;2024-01-15T07:23:02;1.60;99.90
15926;DHT22;8062;53.882;10.642;2024-01-15T07:24:22;1.60;99.90
15926;DHT22;8062;53.882;10.642;2024-01-15T07:25:42;1.60;99.90
15926;DHT22;8062;53.882;10.642;2024-01-15T07:27:01;1.60;99.90
15926;DHT22;8062;53.882;10.642;2024-01-15T07:28:23;1.70;99.90
15926;DHT22;8062;53.882;10.642;2024-01-15T07:29:43;1.80;99.90
15926;DHT22;8062;53.882;10.642;2024-01-15T07:31:03;1.80;99.90
15926;DHT22;8062;53.882;10.642;2024-01-15T07:32:23;1.80;99.90
15926;DHT22;8062;53.882;10.642;2024-01-15T07:33:42;1.90;99.90
15926;DHT22;8062;53.882;10.642;2024-01-15T07:35:02;1.90;99.90
15926;DHT22;8062;53.882;10.642;2024-01-15T07:36:22;1.90;99.90
15926;DHT22;8062;53.882;10.642;2024-01-15T07:37:41;1.90;99.90
15926;DHT22;8062;53.882;10.642;2024-01-15T07:39:01;1.90;99.90
15926;DHT22;8062;53.882;10.642;2024-01-15T07:40:20;2.00;99.90
15926;DHT22;8062;53.882;10.642;2024-01-15T07:41:40;2.00;99.90
15926;DHT22;8062;53.882;10.642;2024-01-15T07:43:00;2.00;99.90
15926;DHT22;8062;53.882;10.642;2024-01-15T07:44:19;2.00;99.90
15926;DHT22;8062;53.882;10.642;2024-01-15T07:45:39;2.00;99.90
15926;DHT22;8062;53.882;10.642;2024-01-15T07:46:59;2.00;99.90
15926;DHT22;8062;53.882;10.642;2024-01-15T07:48:18;2.10;99.90
15926;DHT22;8062;53.882;10.642;2024-01-15T07:49:38;2.10;99.90
15926;DHT22;8062;53.882;10.642;2024-01-15T07:50:58;2.00;99.90
15926;DHT22;8062;53.882;10.642;2024-01-15T07:52:18;2.00;99.90
15926;DHT22;8062;53.882;10.642;2024-01-15T07:53:37;2.00;99.90
15926;DHT22;8062;53.882;10.642;2024-01-15T07:54:57;2.10;99.90
15926;DHT22;8062;53.882;10.642;2024-01-15T07:56:18;2.00;99.90
15926;DHT22;8062;53.882;10.642;2024-01-15T07:57:38;2.00;99.90
15926;DHT22;8062;53.882;10.642;2024-01-15T07:58:57;2.00;99.90
15926;DHT22;8062;53.882;10.642;2024-01-15T08:00:17;2.00;99.90
15926;DHT22;8062;53.882;10.642;2024-01-15T08:01:36;2.10;99.90
15926;DHT22;8062;53.882;10.642;2024-01-15T08:02:56;2.10;99.90
15926;DHT22;8062;53.882;10.642;2024-01-15T08:04:15;2.10;99.90
15926;DHT22;8062;53.882;10.642;2024-01-15T08:05:35;2.10;99.90
15926;DHT22;8062;53.882;10.642;2024-01-15T08:06:55;2.10;99.90
15926;DHT22;8062;53.882;10.642;2024-01-15T08:08:16;2.10;99.90
15926;DHT22;8062;53.882;10.642;2024-01-15T08:09:35;2.10;99.90
15926;DHT22;8062;53.882;10.642;2024-01-15T08:10:55;2.10;99.90
15926;DHT22;8062;53.882;10.642;2024-01-15T08:12:14;2.10;99.90
15926;DHT22;8062;53.882;10.642;2024-01-15T08:13:34;2.10;99.90
15926;DHT22;8062;53.882;10.642;2024-01-15T08:14:53;2.20;99.90
15926;DHT22;8062;53.882;10.642;2024-01-15T08:16:13;2.20;99.90
15926;DHT22;8062;53.882;10.642;2024-01-15T08:17:33;2.20;99.90
15926;DHT22;8062;53.882;10.642;2024-01-15T08:18:52;2.30;99.90
15926;DHT22;8062;53.882;10.642;2024-01-15T08:20:12;2.30;99.90
15926;DHT22;8062;53.882;10.642;2024-01-15T08:21:31;2.30;99.90
15926;DHT22;8062;53.882;10.642;2024-01-15T08:22:51;2.30;99.90
15926;DHT22;8062;53.882;10.642;2024-01-15T08:24:10;2.30;99.90
15926;DHT22;8062;53.882;10.642;2024-01-15T08:25:30;2.30;99.90
15926;DHT22;8062;53.882;10.642;2024-01-15T08:26:49;2.30;99.90
15926;DHT22;8062;53.882;10.642;2024-01-15T08:28:09;2.30;99.90
15926;DHT22;8062;53.882;10.642;2024-01-15T08:29:28;2.30;99.90
15926;DHT22;8062;53.882;10.642;2024-01-15T08:30:52;2.30;99.90